HE28 weather

Gebel El Basur Air Base
Beheira Governorate, Egypt

Public forecast

Using degrees Celsius for public forecast. Weather courtesy of forecast.io.

Closest aviation weather report (METAR) to Gebel El Basur Air Base

Closest report is El Nouzha Airport, 49.8 nm (92.3 km) NW. Retrieved 2019/10/22 14:00 UTC (53 minutes ago):

HEAX 221400Z 34010KT 9999 SCT020 26/18 Q1011 NOSIG

Closest aviation forecast (TAF) to Gebel El Basur Air Base

Closest forecast is El Nouzha Airport, 49.8 nm (92.3 km) NW. Retrieved 2019/10/22 12:40 UTC (2 hours ago):

TAF HEAX 221100Z 2212/2318 33010KT 9999 SCT020 TEMPO 2214/2316 7000 -RA BKN020